sensor_id;sensor_type;location;lat;lon;timestamp;pressure;altitude;pressure_sealevel;temperature;humidity
50125;BME280;36023;48.670;6.184;2023-04-06T00:01:34;99231.34;;;16.41;31.53
50125;BME280;36023;48.670;6.184;2023-04-06T00:04:00;99234.88;;;16.40;31.47
50125;BME280;36023;48.670;6.184;2023-04-06T00:06:27;99230.66;;;16.38;31.51
50125;BME280;36023;48.670;6.184;2023-04-06T00:08:53;99228.03;;;16.38;31.36
50125;BME280;36023;48.670;6.184;2023-04-06T00:11:18;99222.81;;;16.38;31.47
50125;BME280;36023;48.670;6.184;2023-04-06T00:13:44;99221.03;;;16.38;31.56
50125;BME280;36023;48.670;6.184;2023-04-06T00:16:10;99220.19;;;16.38;31.50
50125;BME280;36023;48.670;6.184;2023-04-06T00:18:36;99222.81;;;16.38;31.53
50125;BME280;36023;48.670;6.184;2023-04-06T00:21:02;99214.97;;;16.38;31.50
50125;BME280;36023;48.670;6.184;2023-04-06T00:23:28;99213.25;;;16.37;31.53
50125;BME280;36023;48.670;6.184;2023-04-06T00:25:53;99215.03;;;16.36;31.35
50125;BME280;36023;48.670;6.184;2023-04-06T00:28:19;99210.72;;;16.35;31.58
50125;BME280;36023;48.670;6.184;2023-04-06T00:30:51;99206.34;;;16.36;31.54
50125;BME280;36023;48.670;6.184;2023-04-06T00:33:19;99208.09;;;16.35;31.45
50125;BME280;36023;48.670;6.184;2023-04-06T00:35:45;99202.03;;;16.35;31.46
50125;BME280;36023;48.670;6.184;2023-04-06T00:38:11;99196.81;;;16.35;31.46
50125;BME280;36023;48.670;6.184;2023-04-06T00:40:37;99197.69;;;16.34;31.59
50125;BME280;36023;48.670;6.184;2023-04-06T00:43:08;99202.88;;;16.35;31.52
50125;BME280;36023;48.670;6.184;2023-04-06T00:45:38;99191.56;;;16.35;31.50
50125;BME280;36023;48.670;6.184;2023-04-06T00:48:04;99196.81;;;16.35;31.59
50125;BME280;36023;48.670;6.184;2023-04-06T00:50:30;99195.88;;;16.36;31.55
50125;BME280;36023;48.670;6.184;2023-04-06T00:52:56;99191.56;;;16.35;31.51
50125;BME280;36023;48.670;6.184;2023-04-06T00:55:29;99188.97;;;16.35;31.65
50125;BME280;36023;48.670;6.184;2023-04-06T00:57:58;99191.56;;;16.35;31.62
50125;BME280;36023;48.670;6.184;2023-04-06T01:00:26;99191.56;;;16.35;31.62
50125;BME280;36023;48.670;6.184;2023-04-06T01:02:57;99189.00;;;16.33;31.60
50125;BME280;36023;48.670;6.184;2023-04-06T01:05:30;99187.22;;;16.34;31.70
50125;BME280;36023;48.670;6.184;2023-04-06T01:07:58;99185.50;;;16.34;31.70
50125;BME280;36023;48.670;6.184;2023-04-06T01:10:28;99188.13;;;16.34;31.58
50125;BME280;36023;48.670;6.184;2023-04-06T01:13:20;99193.34;;;16.34;31.64
50125;BME280;36023;48.670;6.184;2023-04-06T01:15:52;99183.78;;;16.33;31.62
50125;BME280;36023;48.670;6.184;2023-04-06T01:18:29;99182.00;;;16.34;31.70
50125;BME280;36023;48.670;6.184;2023-04-06T01:21:15;99182.94;;;16.33;31.71
50125;BME280;36023;48.670;6.184;2023-04-06T01:23:52;99185.53;;;16.33;31.65
50125;BME280;36023;48.670;6.184;2023-04-06T01:26:25;99179.53;;;16.31;31.67
50125;BME280;36023;48.670;6.184;2023-04-06T01:28:52;99182.16;;;16.31;31.64
50125;BME280;36023;48.670;6.184;2023-04-06T01:31:29;99184.75;;;16.31;31.65
50125;BME280;36023;48.670;6.184;2023-04-06T01:33:56;99182.16;;;16.31;31.64
50125;BME280;36023;48.670;6.184;2023-04-06T01:36:24;99177.84;;;16.30;31.66
50125;BME280;36023;48.670;6.184;2023-04-06T01:39:03;99171.75;;;16.29;31.64
50125;BME280;36023;48.670;6.184;2023-04-06T01:41:34;99176.06;;;16.30;31.67
50125;BME280;36023;48.670;6.184;2023-04-06T01:44:01;99168.31;;;16.29;31.65
50125;BME280;36023;48.670;6.184;2023-04-06T01:46:29;99176.16;;;16.29;31.55
50125;BME280;36023;48.670;6.184;2023-04-06T01:48:56;99161.38;;;16.28;31.63
50125;BME280;36023;48.670;6.184;2023-04-06T01:51:34;99164.00;;;16.28;31.56
50125;BME280;36023;48.670;6.184;2023-04-06T01:54:02;99168.38;;;16.27;31.63
50125;BME280;36023;48.670;6.184;2023-04-06T01:56:55;99169.22;;;16.28;31.66
50125;BME280;36023;48.670;6.184;2023-04-06T01:59:28;99170.13;;;16.27;31.60
50125;BME280;36023;48.670;6.184;2023-04-06T02:01:55;99163.16;;;16.27;31.62
50125;BME280;36023;48.670;6.184;2023-04-06T02:04:24;99162.31;;;16.27;31.65
50125;BME280;36023;48.670;6.184;2023-04-06T02:06:56;99163.19;;;16.26;32.00
50125;BME280;36023;48.670;6.184;2023-04-06T02:09:24;99163.19;;;16.26;31.60
50125;BME280;36023;48.670;6.184;2023-04-06T02:11:49;99164.09;;;16.25;31.60
50125;BME280;36023;48.670;6.184;2023-04-06T02:14:15;99159.72;;;16.25;31.56
50125;BME280;36023;48.670;6.184;2023-04-06T02:16:47;99157.19;;;16.24;31.63
50125;BME280;36023;48.670;6.184;2023-04-06T02:19:12;99163.25;;;16.24;31.67
50125;BME280;36023;48.670;6.184;2023-04-06T02:21:38;99162.41;;;16.24;31.67
50125;BME280;36023;48.670;6.184;2023-04-06T02:24:04;99148.50;;;16.23;31.54
50125;BME280;36023;48.670;6.184;2023-04-06T02:26:30;99149.41;;;16.22;31.54
50125;BME280;36023;48.670;6.184;2023-04-06T02:28:55;99143.34;;;16.22;31.49
50125;BME280;36023;48.670;6.184;2023-04-06T02:31:21;99151.19;;;16.22;31.68
50125;BME280;36023;48.670;6.184;2023-04-06T02:33:47;99152.94;;;16.21;31.67
50125;BME280;36023;48.670;6.184;2023-04-06T02:36:16;99144.25;;;16.21;31.63
50125;BME280;36023;48.670;6.184;2023-04-06T02:38:42;99147.78;;;16.20;31.47
50125;BME280;36023;48.670;6.184;2023-04-06T02:41:08;99136.50;;;16.19;31.57
50125;BME280;36023;48.670;6.184;2023-04-06T02:43:35;99143.47;;;16.19;31.75
50125;BME280;36023;48.670;6.184;2023-04-06T02:46:07;99140.88;;;16.19;31.30
50125;BME280;36023;48.670;6.184;2023-04-06T02:48:36;99146.97;;;16.17;31.55
50125;BME280;36023;48.670;6.184;2023-04-06T02:51:03;99137.44;;;16.16;31.58
50125;BME280;36023;48.670;6.184;2023-04-06T02:53:29;99132.22;;;16.16;31.56
50125;BME280;36023;48.670;6.184;2023-04-06T02:55:55;99143.50;;;16.17;31.74
50125;BME280;36023;48.670;6.184;2023-04-06T02:58:25;99135.75;;;16.15;31.95
50125;BME280;36023;48.670;6.184;2023-04-06T03:00:54;99136.53;;;16.17;31.67
50125;BME280;36023;48.670;6.184;2023-04-06T03:03:22;99137.44;;;16.16;31.77
50125;BME280;36023;48.670;6.184;2023-04-06T03:05:48;99138.28;;;16.17;31.53
50125;BME280;36023;48.670;6.184;2023-04-06T03:08:15;99133.13;;;16.15;31.73
50125;BME280;36023;48.670;6.184;2023-04-06T03:10:43;99138.38;;;16.15;31.54
50125;BME280;36023;48.670;6.184;2023-04-06T03:13:09;99145.28;;;16.16;31.72
50125;BME280;36023;48.670;6.184;2023-04-06T03:15:47;99143.59;;;16.15;31.71
50125;BME280;36023;48.670;6.184;2023-04-06T03:18:21;99139.28;;;16.14;31.52
50125;BME280;36023;48.670;6.184;2023-04-06T03:20:48;99141.81;;;16.16;31.59
50125;BME280;36023;48.670;6.184;2023-04-06T03:23:16;99141.91;;;16.14;31.63
50125;BME280;36023;48.670;6.184;2023-04-06T03:25:44;99135.81;;;16.14;31.63
50125;BME280;36023;48.670;6.184;2023-04-06T03:28:14;99145.44;;;16.13;31.61
50125;BME280;36023;48.670;6.184;2023-04-06T03:30:59;99140.19;;;16.13;31.63
50125;BME280;36023;48.670;6.184;2023-04-06T03:33:54;99143.72;;;16.12;31.61
50125;BME280;36023;48.670;6.184;2023-04-06T03:36:24;99144.56;;;16.13;31.58
50125;BME280;36023;48.670;6.184;2023-04-06T03:38:52;99144.56;;;16.13;31.62
50125;BME280;36023;48.670;6.184;2023-04-06T03:41:21;99147.25;;;16.11;31.46
50125;BME280;36023;48.670;6.184;2023-04-06T03:44:00;99149.88;;;16.11;31.50
50125;BME280;36023;48.670;6.184;2023-04-06T03:46:25;99145.53;;;16.10;31.56
50125;BME280;36023;48.670;6.184;2023-04-06T03:48:53;99140.31;;;16.10;31.74
50125;BME280;36023;48.670;6.184;2023-04-06T03:51:21;99140.31;;;16.10;31.32
50125;BME280;36023;48.670;6.184;2023-04-06T03:53:47;99143.84;;;16.09;31.46
50125;BME280;36023;48.670;6.184;2023-04-06T03:56:13;99149.06;;;16.09;31.58
50125;BME280;36023;48.670;6.184;2023-04-06T03:58:39;99155.19;;;16.08;31.50
50125;BME280;36023;48.670;6.184;2023-04-06T04:01:05;99161.34;;;16.07;31.51
50125;BME280;36023;48.670;6.184;2023-04-06T04:03:31;99151.75;;;16.08;31.56
50125;BME280;36023;48.670;6.184;2023-04-06T04:05:57;99156.13;;;16.07;31.61
50125;BME280;36023;48.670;6.184;2023-04-06T04:08:25;99151.81;;;16.06;31.48
50125;BME280;36023;48.670;6.184;2023-04-06T04:10:50;99156.19;;;16.06;31.53
50125;BME280;36023;48.670;6.184;2023-04-06T04:13:17;99153.56;;;16.06;31.43
50125;BME280;36023;48.670;6.184;2023-04-06T04:15:46;99163.19;;;16.05;31.47
50125;BME280;36023;48.670;6.184;2023-04-06T04:18:14;99162.34;;;16.05;31.50
50125;BME280;36023;48.670;6.184;2023-04-06T04:20:40;99162.25;;;16.06;31.44
50125;BME280;36023;48.670;6.184;2023-04-06T04:23:06;99157.19;;;16.03;31.71
50125;BME280;36023;48.670;6.184;2023-04-06T04:25:33;99170.25;;;16.03;31.56
50125;BME280;36023;48.670;6.184;2023-04-06T04:27:59;99170.25;;;16.03;31.42
50125;BME280;36023;48.670;6.184;2023-04-06T04:30:25;99164.13;;;16.03;31.57
50125;BME280;36023;48.670;6.184;2023-04-06T04:32:50;99158.06;;;16.02;31.55
50125;BME280;36023;48.670;6.184;2023-04-06T04:35:20;99153.81;;;16.00;31.51
50125;BME280;36023;48.670;6.184;2023-04-06T04:37:47;99161.59;;;16.01;31.75
50125;BME280;36023;48.670;6.184;2023-04-06T04:40:14;99165.91;;;16.02;31.85
50125;BME280;36023;48.670;6.184;2023-04-06T04:42:49;99162.25;;;16.06;32.10
50125;BME280;36023;48.670;6.184;2023-04-06T04:45:24;99164.63;;;16.12;32.23
50125;BME280;36023;48.670;6.184;2023-04-06T04:47:51;99160.00;;;16.19;32.14
50125;BME280;36023;48.670;6.184;2023-04-06T04:50:18;99163.19;;;16.26;32.28
50125;BME280;36023;48.670;6.184;2023-04-06T04:52:46;99166.31;;;16.34;32.14
50125;BME280;36023;48.670;6.184;2023-04-06T04:55:30;99166.06;;;16.40;32.25
50125;BME280;36023;48.670;6.184;2023-04-06T04:57:58;99156.28;;;16.45;32.35
50125;BME280;36023;48.670;6.184;2023-04-06T05:00:43;99171.66;;;16.53;32.27
50125;BME280;36023;48.670;6.184;2023-04-06T05:03:18;99168.81;;;16.57;32.41
50125;BME280;36023;48.670;6.184;2023-04-06T05:05:52;99164.25;;;16.62;32.18
50125;BME280;36023;48.670;6.184;2023-04-06T05:08:18;99173.66;;;16.66;32.18
50125;BME280;36023;48.670;6.184;2023-04-06T05:10:48;99173.50;;;16.71;32.16
50125;BME280;36023;48.670;6.184;2023-04-06T05:13:14;99168.13;;;16.74;32.18
50125;BME280;36023;48.670;6.184;2023-04-06T05:15:41;99171.47;;;16.78;32.23
50125;BME280;36023;48.670;6.184;2023-04-06T05:18:20;99166.03;;;16.82;31.98
50125;BME280;36023;48.670;6.184;2023-04-06T05:20:46;99166.75;;;16.86;32.08
50125;BME280;36023;48.670;6.184;2023-04-06T05:23:12;99165.75;;;16.88;31.96
50125;BME280;36023;48.670;6.184;2023-04-06T05:25:38;99166.47;;;16.92;31.97
50125;BME280;36023;48.670;6.184;2023-04-06T05:28:13;99171.50;;;16.96;32.04
50125;BME280;36023;48.670;6.184;2023-04-06T05:30:40;99170.53;;;16.99;32.00
50125;BME280;36023;48.670;6.184;2023-04-06T05:33:08;99169.53;;;17.02;31.99
50125;BME280;36023;48.670;6.184;2023-04-06T05:35:46;99173.72;;;17.06;31.98
50125;BME280;36023;48.670;6.184;2023-04-06T05:38:13;99177.94;;;17.08;32.02
50125;BME280;36023;48.670;6.184;2023-04-06T05:40:39;99172.63;;;17.10;31.93
50125;BME280;36023;48.670;6.184;2023-04-06T05:43:09;99175.13;;;17.13;31.84
50125;BME280;36023;48.670;6.184;2023-04-06T05:45:37;99182.00;;;17.15;31.99
50125;BME280;36023;48.670;6.184;2023-04-06T05:48:05;99172.28;;;17.17;31.76
50125;BME280;36023;48.670;6.184;2023-04-06T05:50:31;99174.00;;;17.18;31.86
50125;BME280;36023;48.670;6.184;2023-04-06T05:52:57;99165.22;;;17.19;31.81
50125;BME280;36023;48.670;6.184;2023-04-06T05:55:27;99169.47;;;17.22;31.67
50125;BME280;36023;48.670;6.184;2023-04-06T05:58:06;99165.94;;;17.23;31.75
50125;BME280;36023;48.670;6.184;2023-04-06T06:00:32;99169.34;;;17.25;31.68
50125;BME280;36023;48.670;6.184;2023-04-06T06:03:05;99170.19;;;17.25;31.85
50125;BME280;36023;48.670;6.184;2023-04-06T06:05:33;99169.25;;;17.26;31.72
50125;BME280;36023;48.670;6.184;2023-04-06T06:08:06;99175.34;;;17.27;31.66
50125;BME280;36023;48.670;6.184;2023-04-06T06:10:34;99171.03;;;17.26;31.69
50125;BME280;36023;48.670;6.184;2023-04-06T06:13:01;99167.47;;;17.27;31.74
50125;BME280;36023;48.670;6.184;2023-04-06T06:15:27;99166.63;;;17.26;31.64
50125;BME280;36023;48.670;6.184;2023-04-06T06:17:53;99166.63;;;17.26;31.62
50125;BME280;36023;48.670;6.184;2023-04-06T06:20:18;99170.19;;;17.25;31.66
50125;BME280;36023;48.670;6.184;2023-04-06T06:22:44;99166.78;;;17.23;31.76
50125;BME280;36023;48.670;6.184;2023-04-06T06:25:15;99167.72;;;17.22;31.67
50125;BME280;36023;48.670;6.184;2023-04-06T06:27:41;99164.31;;;17.20;31.82
50125;BME280;36023;48.670;6.184;2023-04-06T06:30:08;99166.22;;;17.17;31.68
50125;BME280;36023;48.670;6.184;2023-04-06T06:32:37;99173.22;;;17.16;31.60
50125;BME280;36023;48.670;6.184;2023-04-06T06:35:06;99174.16;;;17.15;31.72
50125;BME280;36023;48.670;6.184;2023-04-06T06:37:33;99169.91;;;17.13;31.72
50125;BME280;36023;48.670;6.184;2023-04-06T06:40:01;99175.19;;;17.11;31.78
50125;BME280;36023;48.670;6.184;2023-04-06T06:42:27;99181.34;;;17.10;31.81
50125;BME280;36023;48.670;6.184;2023-04-06T06:45:07;99175.34;;;17.08;31.90
50125;BME280;36023;48.670;6.184;2023-04-06T06:47:33;99174.56;;;17.06;31.75
50125;BME280;36023;48.670;6.184;2023-04-06T06:49:58;99179.88;;;17.05;31.70
50125;BME280;36023;48.670;6.184;2023-04-06T06:52:24;99186.00;;;17.04;31.89
50125;BME280;36023;48.670;6.184;2023-04-06T06:54:50;99181.75;;;17.01;31.79
50125;BME280;36023;48.670;6.184;2023-04-06T06:57:19;99181.84;;;16.99;32.03
50125;BME280;36023;48.670;6.184;2023-04-06T06:59:47;99184.53;;;16.98;31.98
50125;BME280;36023;48.670;6.184;2023-04-06T07:02:13;99184.59;;;16.96;31.98
50125;BME280;36023;48.670;6.184;2023-04-06T07:04:38;99188.94;;;16.96;32.28
50125;BME280;36023;48.670;6.184;2023-04-06T07:07:05;99187.00;;;17.01;33.29
50125;BME280;36023;48.670;6.184;2023-04-06T07:09:30;99179.72;;;17.08;34.07
50125;BME280;36023;48.670;6.184;2023-04-06T07:11:57;99190.75;;;17.14;34.58
50125;BME280;36023;48.670;6.184;2023-04-06T07:14:23;99187.16;;;17.17;34.88
50125;BME280;36023;48.670;6.184;2023-04-06T07:16:49;99191.34;;;17.21;35.40
50125;BME280;36023;48.670;6.184;2023-04-06T07:19:15;99187.72;;;17.23;35.73
50125;BME280;36023;48.670;6.184;2023-04-06T07:21:41;99185.88;;;17.25;35.89
50125;BME280;36023;48.670;6.184;2023-04-06T07:24:07;99191.13;;;17.25;36.27
50125;BME280;36023;48.670;6.184;2023-04-06T07:26:33;99193.66;;;17.27;36.49
50125;BME280;36023;48.670;6.184;2023-04-06T07:28:58;99195.38;;;17.28;36.80
50125;BME280;36023;48.670;6.184;2023-04-06T07:31:26;99193.63;;;17.29;36.89
50125;BME280;36023;48.670;6.184;2023-04-06T07:33:52;99185.75;;;17.29;36.97
50125;BME280;36023;48.670;6.184;2023-04-06T07:36:20;99196.28;;;17.27;36.95
50125;BME280;36023;48.670;6.184;2023-04-06T07:38:45;99190.28;;;17.25;37.30
50125;BME280;36023;48.670;6.184;2023-04-06T07:41:13;99177.25;;;17.23;37.19
50125;BME280;36023;48.670;6.184;2023-04-06T07:43:39;99187.81;;;17.22;37.27
50125;BME280;36023;48.670;6.184;2023-04-06T07:46:06;99187.03;;;17.20;37.13
50125;BME280;36023;48.670;6.184;2023-04-06T07:48:32;99186.31;;;17.16;37.16
50125;BME280;36023;48.670;6.184;2023-04-06T07:51:02;99181.22;;;17.13;37.20
50125;BME280;36023;48.670;6.184;2023-04-06T07:53:28;99176.97;;;17.11;37.16
50125;BME280;36023;48.670;6.184;2023-04-06T07:55:58;99182.25;;;17.09;37.32
50125;BME280;36023;48.670;6.184;2023-04-06T07:58:26;99188.56;;;17.05;37.06
50125;BME280;36023;48.670;6.184;2023-04-06T08:00:52;99184.44;;;16.99;37.13
50125;BME280;36023;48.670;6.184;2023-04-06T08:03:18;99176.00;;;16.93;37.32
50125;BME280;36023;48.670;6.184;2023-04-06T08:05:46;99185.72;;;16.91;37.37
50125;BME280;36023;48.670;6.184;2023-04-06T08:08:11;99178.91;;;16.87;37.17
50125;BME280;36023;48.670;6.184;2023-04-06T08:10:38;99183.44;;;16.83;37.20
50125;BME280;36023;48.670;6.184;2023-04-06T08:13:03;99183.34;;;16.85;37.17
50125;BME280;36023;48.670;6.184;2023-04-06T08:15:29;99177.13;;;16.87;37.10
50125;BME280;36023;48.670;6.184;2023-04-06T08:17:55;99174.72;;;16.83;37.03
50125;BME280;36023;48.670;6.184;2023-04-06T08:20:22;99178.47;;;16.77;37.12
50125;BME280;36023;48.670;6.184;2023-04-06T08:22:48;99181.22;;;16.74;37.03
50125;BME280;36023;48.670;6.184;2023-04-06T08:25:14;99175.25;;;16.70;37.09
50125;BME280;36023;48.670;6.184;2023-04-06T08:27:40;99180.56;;;16.69;37.18
50125;BME280;36023;48.670;6.184;2023-04-06T08:30:06;99170.25;;;16.64;37.20
50125;BME280;36023;48.670;6.184;2023-04-06T08:32:33;99173.84;;;16.62;37.04
50125;BME280;36023;48.670;6.184;2023-04-06T08:35:00;99173.16;;;16.58;37.04
50125;BME280;36023;48.670;6.184;2023-04-06T08:37:27;99174.97;;;16.56;37.05
50125;BME280;36023;48.670;6.184;2023-04-06T08:39:53;99174.19;;;16.54;37.12
50125;BME280;36023;48.670;6.184;2023-04-06T08:42:21;99178.63;;;16.52;37.00
50125;BME280;36023;48.670;6.184;2023-04-06T08:44:49;99176.09;;;16.51;36.95
50125;BME280;36023;48.670;6.184;2023-04-06T08:47:16;99181.38;;;16.49;36.88
50125;BME280;36023;48.670;6.184;2023-04-06T08:49:43;99177.97;;;16.47;36.81
50125;BME280;36023;48.670;6.184;2023-04-06T08:52:10;99190.19;;;16.47;36.95
50125;BME280;36023;48.670;6.184;2023-04-06T08:54:37;99182.44;;;16.45;36.71
50125;BME280;36023;48.670;6.184;2023-04-06T08:57:04;99182.50;;;16.43;36.80
50125;BME280;36023;48.670;6.184;2023-04-06T08:59:31;99177.34;;;16.42;36.69
50125;BME280;36023;48.670;6.184;2023-04-06T09:01:57;99174.75;;;16.40;36.72
50125;BME280;36023;48.670;6.184;2023-04-06T09:04:23;99188.69;;;16.41;36.52
50125;BME280;36023;48.670;6.184;2023-04-06T09:06:50;99186.97;;;16.40;36.66
50125;BME280;36023;48.670;6.184;2023-04-06T09:09:17;99186.22;;;16.38;36.74
50125;BME280;36023;48.670;6.184;2023-04-06T09:11:44;99183.59;;;16.38;36.75
50125;BME280;36023;48.670;6.184;2023-04-06T09:14:11;99174.06;;;16.37;36.71
50125;BME280;36023;48.670;6.184;2023-04-06T09:16:40;99178.44;;;16.36;36.65
50125;BME280;36023;48.670;6.184;2023-04-06T09:19:07;99176.75;;;16.35;36.64
50125;BME280;36023;48.670;6.184;2023-04-06T09:21:33;99179.34;;;16.35;36.54
50125;BME280;36023;48.670;6.184;2023-04-06T09:24:00;99170.72;;;16.33;36.63
50125;BME280;36023;48.670;6.184;2023-04-06T09:26:26;99173.31;;;16.33;36.80
50125;BME280;36023;48.670;6.184;2023-04-06T09:28:54;99171.63;;;16.32;36.60
50125;BME280;36023;48.670;6.184;2023-04-06T09:31:23;99171.63;;;16.32;36.61
50125;BME280;36023;48.670;6.184;2023-04-06T09:33:51;99164.69;;;16.31;36.68
50125;BME280;36023;48.670;6.184;2023-04-06T09:36:28;99169.94;;;16.31;36.53
50125;BME280;36023;48.670;6.184;2023-04-06T09:38:57;99170.78;;;16.32;36.52
50125;BME280;36023;48.670;6.184;2023-04-06T09:41:28;99169.94;;;16.31;36.60
50125;BME280;36023;48.670;6.184;2023-04-06T09:44:06;99167.38;;;16.30;36.41
50125;BME280;36023;48.670;6.184;2023-04-06T09:46:37;99171.69;;;16.31;36.35
50125;BME280;36023;48.670;6.184;2023-04-06T09:49:05;99171.69;;;16.31;36.50
50125;BME280;36023;48.670;6.184;2023-04-06T09:51:48;99170.00;;;16.30;36.35
50125;BME280;36023;48.670;6.184;2023-04-06T09:54:18;99170.84;;;16.30;36.57
50125;BME280;36023;48.670;6.184;2023-04-06T09:56:49;99169.94;;;16.31;36.48
50125;BME280;36023;48.670;6.184;2023-04-06T09:59:49;99162.88;;;16.33;36.58
50125;BME280;36023;48.670;6.184;2023-04-06T10:02:25;99161.09;;;16.34;36.74
50125;BME280;36023;48.670;6.184;2023-04-06T10:04:59;99156.69;;;16.36;36.73
50125;BME280;36023;48.670;6.184;2023-04-06T10:07:29;99159.16;;;16.39;36.97
50125;BME280;36023;48.670;6.184;2023-04-06T10:09:58;99150.38;;;16.40;37.21
50125;BME280;36023;48.670;6.184;2023-04-06T10:12:25;99162.50;;;16.42;37.45
50125;BME280;36023;48.670;6.184;2023-04-06T10:14:51;99147.66;;;16.43;37.59
50125;BME280;36023;48.670;6.184;2023-04-06T10:17:17;99151.06;;;16.45;37.56
50125;BME280;36023;48.670;6.184;2023-04-06T10:19:52;99149.38;;;16.44;37.66
50125;BME280;36023;48.670;6.184;2023-04-06T10:22:26;99144.13;;;16.44;37.51
50125;BME280;36023;48.670;6.184;2023-04-06T10:24:54;99150.22;;;16.44;37.54
50125;BME280;36023;48.670;6.184;2023-04-06T10:27:29;99143.28;;;16.43;37.58
50125;BME280;36023;48.670;6.184;2023-04-06T10:30:01;99147.66;;;16.43;37.65
50125;BME280;36023;48.670;6.184;2023-04-06T10:32:34;99136.38;;;16.42;37.54
50125;BME280;36023;48.670;6.184;2023-04-06T10:35:11;99145.06;;;16.43;37.43
50125;BME280;36023;48.670;6.184;2023-04-06T10:38:01;99138.13;;;16.42;37.45
50125;BME280;36023;48.670;6.184;2023-04-06T10:40:30;99138.97;;;16.42;37.55
50125;BME280;36023;48.670;6.184;2023-04-06T10:43:32;99140.75;;;16.42;37.57
50125;BME280;36023;48.670;6.184;2023-04-06T10:45:57;99145.97;;;16.42;37.39
50125;BME280;36023;48.670;6.184;2023-04-06T10:48:25;99138.13;;;16.42;37.55
50125;BME280;36023;48.670;6.184;2023-04-06T10:50:52;99137.25;;;16.41;37.40
50125;BME280;36023;48.670;6.184;2023-04-06T10:53:25;99138.13;;;16.42;37.43
50125;BME280;36023;48.670;6.184;2023-04-06T10:55:54;99145.06;;;16.43;37.38
50125;BME280;36023;48.670;6.184;2023-04-06T10:58:24;99135.38;;;16.45;37.25
50125;BME280;36023;48.670;6.184;2023-04-06T11:00:51;99137.91;;;16.47;37.20
50125;BME280;36023;48.670;6.184;2023-04-06T11:03:18;99136.16;;;16.47;37.17
50125;BME280;36023;48.670;6.184;2023-04-06T11:05:48;99141.44;;;16.46;37.01
50125;BME280;36023;48.670;6.184;2023-04-06T11:08:23;99135.38;;;16.45;37.23
50125;BME280;36023;48.670;6.184;2023-04-06T11:10:49;99127.47;;;16.47;37.14
50125;BME280;36023;48.670;6.184;2023-04-06T11:13:15;99130.06;;;16.47;37.14
50125;BME280;36023;48.670;6.184;2023-04-06T11:15:40;99120.53;;;16.46;37.05
50125;BME280;36023;48.670;6.184;2023-04-06T11:18:06;99126.69;;;16.44;37.03
50125;BME280;36023;48.670;6.184;2023-04-06T11:20:32;99124.06;;;16.44;37.11
50125;BME280;36023;48.670;6.184;2023-04-06T11:22:57;99118.00;;;16.44;36.94
50125;BME280;36023;48.670;6.184;2023-04-06T11:25:25;99126.69;;;16.44;37.08
50125;BME280;36023;48.670;6.184;2023-04-06T11:27:53;99122.31;;;16.45;36.97
50125;BME280;36023;48.670;6.184;2023-04-06T11:30:19;99112.75;;;16.44;36.97
50125;BME280;36023;48.670;6.184;2023-04-06T11:32:45;99120.59;;;16.44;36.97
50125;BME280;36023;48.670;6.184;2023-04-06T11:35:23;99114.47;;;16.45;37.01
50125;BME280;36023;48.670;6.184;2023-04-06T11:37:49;99114.53;;;16.43;37.01
50125;BME280;36023;48.670;6.184;2023-04-06T11:40:22;99116.16;;;16.46;36.97
50125;BME280;36023;48.670;6.184;2023-04-06T11:42:55;99109.22;;;16.45;36.90
50125;BME280;36023;48.670;6.184;2023-04-06T11:45:22;99106.63;;;16.45;36.77
50125;BME280;36023;48.670;6.184;2023-04-06T11:47:59;99099.63;;;16.46;36.96
50125;BME280;36023;48.670;6.184;2023-04-06T11:50:31;99097.84;;;16.46;36.95
50125;BME280;36023;48.670;6.184;2023-04-06T11:52:59;99104.00;;;16.45;36.94
50125;BME280;36023;48.670;6.184;2023-04-06T11:55:27;99104.84;;;16.46;37.05
50125;BME280;36023;48.670;6.184;2023-04-06T11:57:53;99107.47;;;16.46;37.14
50125;BME280;36023;48.670;6.184;2023-04-06T12:00:20;99112.69;;;16.46;36.98
50125;BME280;36023;48.670;6.184;2023-04-06T12:02:46;99104.00;;;16.45;36.91
50125;BME280;36023;48.670;6.184;2023-04-06T12:05:12;99097.94;;;16.44;36.66
50125;BME280;36023;48.670;6.184;2023-04-06T12:07:39;99100.63;;;16.43;36.70
50125;BME280;36023;48.670;6.184;2023-04-06T12:10:05;99089.31;;;16.42;36.57
50125;BME280;36023;48.670;6.184;2023-04-06T12:12:31;99096.31;;;16.42;36.69
50125;BME280;36023;48.670;6.184;2023-04-06T12:14:57;99093.69;;;16.42;36.65
50125;BME280;36023;48.670;6.184;2023-04-06T12:17:22;99102.41;;;16.41;36.70
50125;BME280;36023;48.670;6.184;2023-04-06T12:19:49;99094.59;;;16.41;36.52
50125;BME280;36023;48.670;6.184;2023-04-06T12:22:15;99094.59;;;16.41;36.52
50125;BME280;36023;48.670;6.184;2023-04-06T12:24:40;99086.75;;;16.41;36.45
50125;BME280;36023;48.670;6.184;2023-04-06T12:27:06;99092.88;;;16.40;36.55
50125;BME280;36023;48.670;6.184;2023-04-06T12:29:32;99098.97;;;16.40;36.49
50125;BME280;36023;48.670;6.184;2023-04-06T12:31:58;99093.81;;;16.39;36.30
50125;BME280;36023;48.670;6.184;2023-04-06T12:34:25;99094.66;;;16.39;36.31
50125;BME280;36023;48.670;6.184;2023-04-06T12:36:52;99085.03;;;16.40;36.52
50125;BME280;36023;48.670;6.184;2023-04-06T12:39:18;99084.28;;;16.38;36.38
50125;BME280;36023;48.670;6.184;2023-04-06T12:41:44;99092.13;;;16.38;36.12
50125;BME280;36023;48.670;6.184;2023-04-06T12:44:09;99085.19;;;16.37;36.21
50125;BME280;36023;48.670;6.184;2023-04-06T12:46:36;99083.50;;;16.36;36.10
50125;BME280;36023;48.670;6.184;2023-04-06T12:49:02;99094.81;;;16.36;36.10
50125;BME280;36023;48.670;6.184;2023-04-06T12:51:28;99089.66;;;16.35;36.06
50125;BME280;36023;48.670;6.184;2023-04-06T12:53:54;99095.72;;;16.35;36.20
50125;BME280;36023;48.670;6.184;2023-04-06T12:56:20;99090.50;;;16.35;36.26
50125;BME280;36023;48.670;6.184;2023-04-06T12:58:50;99088.72;;;16.36;36.18
50125;BME280;36023;48.670;6.184;2023-04-06T13:01:16;99096.56;;;16.36;36.34
50125;BME280;36023;48.670;6.184;2023-04-06T13:03:41;99097.41;;;16.36;36.23
50125;BME280;36023;48.670;6.184;2023-04-06T13:06:08;99102.56;;;16.38;36.38
50125;BME280;36023;48.670;6.184;2023-04-06T13:08:37;99105.09;;;16.39;36.41